x

Smith Island, Wa (sisw1) Weather Station

9:00 - Mon 29th May 2017 All times are PDT. -7 hours from GMT.

  • Wind
    25mph, 29mph gusts
  • Ar Temp 51°f
  • Sea Pressure 1012.9mb
  • Smith Island, Wa
  • Smith Island, Wa

More Historic Weather Station data

Upgrade to MSW Pro to gain access to the past 30 days of data for over 8000 Wavebouys and Weather Stations around the globe.

Join Pro

Comparision Forecast

View Surf forecast
   
Seg 05/29 9:00 25 29 mph 1012.9mb 51f
8:00 25 29 mph 1012.5mb 52f
7:00 24 29 mph 1012.5mb 53f
6:00 23 29 mph 1012.9mb 53f
5:00 15 22 mph 1013.6mb 54f
4:00 7 8 mph 1014.6mb 55f
3:00 5 7 mph 1015.4mb 55f
2:00 5 6 mph 1016.2mb 54f
1:00 5 9 mph 1016.9mb 53f
12:00 6 7 mph 1017.4mb 53f
11:00 6 9 mph 1017.7mb 52f
10:00 9 11 mph 1018.3mb 51f
9:00 10 11 mph 1018.6mb 50f
8:00 13 14 mph 1018.7mb 50f
7:00 18 21 mph 1018.5mb 50f
6:00 22 25 mph 1018.4mb 50f
5:00 22 24 mph 1018mb 50f
4:00 22 24 mph 1017.7mb 51f
3:00 23 28 mph 1017.1mb 51f
2:00 18 25 mph 1017mb 51f
1:00 17 24 mph 1016.9mb 51f
12:00 16 22 mph 1016.6mb 50f
Dom 05/28 11:00 9 15 mph 1016.8mb 51f
10:00 15 20 mph 1016.9mb 51f
9:00 11 17 mph 1017mb 50f
8:00 14 18 mph 1017.2mb 51f
7:00 7 10 mph 1017.5mb 53f
6:00 10 16 mph 1017.7mb 53f
5:00 9 11 mph 1018.3mb 53f
4:00 7 8 mph 1018.7mb 55f
3:00 5 7 mph 1019.2mb 56f
2:00 5 7 mph 1019.5mb 55f
1:00 5 7 mph 1019.8mb 54f
12:00 7 8 mph 1020.1mb 52f
11:00 2 7 mph 1020.2mb 51f
10:00 9 10 mph 1020.2mb 50f
9:00 9 10 mph 1020.2mb 50f
8:00 8 10 mph 1019.9mb 50f
7:00 9 10 mph 1019.5mb 50f
6:00 10 14 mph 1019mb 50f
5:00 11 13 mph 1018.6mb 51f
4:00 6 6 mph 1018.5mb 50f
3:00 1 1 mph 1018.5mb 50f
2:00 2 2 mph 1018.3mb 51f
1:00 2 3 mph 1018.3mb 51f
12:00 3 5 mph 1018.3mb 53f
Sáb 05/27 11:00  -  2 mph 1018.2mb 52f
10:00 9 10 mph 1017.9mb 53f
9:00 5 6 mph 1017.9mb 53f
8:00 9 10 mph 1017.7mb 55f
7:00 8 9 mph 1017.9mb 56f
6:00 13 13 mph 1018.1mb 58f
5:00 8 8 mph 1018.3mb 59f
4:00 5 5 mph 1018.7mb 62f
3:00 5 6 mph 1019.2mb 60f
2:00 3 5 mph 1019.5mb 58f
1:00 3 5 mph 1019.6mb 56f
12:00 2 3 mph 1019.8mb 54f
11:00 3 5 mph 1019.7mb 55f
10:00 2 3 mph 1019.5mb 54f
9:00 3 3 mph 1019.3mb 52f
8:00 2 3 mph 1018.8mb 51f
7:00 5 5 mph 1018.3mb 51f
6:00 11 11 mph 1017.8mb 51f
5:00 11 13 mph 1017.5mb 51f
4:00 11 13 mph 1017.3mb 51f
3:00 9 10 mph 1017.2mb 51f
2:00 5 6 mph 1016.8mb 51f
1:00 6 8 mph 1016.5mb 53f
12:00 11 13 mph 1016mb 53f
Sex 05/26 11:00 7 8 mph 1016mb 53f
10:00 8 9 mph 1015.9mb 54f
9:00 10 15 mph 1015.4mb 54f
8:00 5 7 mph 1015.4mb 56f
7:00 9 9 mph 1015.1mb 56f
6:00 9 11 mph 1015.1mb 57f
5:00 5 5 mph 1014.9mb 62f
4:00 6 7 mph 1014.9mb 60f
3:00 6 6 mph 1015mb 59f
2:00 5 6 mph 1015.2mb 60f
1:00 5 6 mph 1015.3mb 56f
12:00 3 3 mph 1015.3mb 55f
11:00 2 3 mph 1015.3mb 55f
10:00 1 3 mph 1015.2mb 57f
9:00 2 5 mph 1015mb 54f
8:00  -  0 mph 1014.8mb 53f
7:00  -  0 mph 1014.3mb 52f
6:00 6 7 mph 1013.9mb 50f